createdAt,value
2018-08-28T00:00:57.242Z,91.30
2018-08-28T00:03:26.216Z,90.66
2018-08-28T00:05:54.635Z,90.32
2018-08-28T00:08:23.167Z,90.39
2018-08-28T00:10:51.899Z,89.05
2018-08-28T00:13:20.373Z,88.77
2018-08-28T00:15:49.170Z,88.02
2018-08-28T00:18:17.678Z,88.07
2018-08-28T00:20:46.257Z,87.62
2018-08-28T00:23:14.703Z,88.20
2018-08-28T00:25:43.187Z,88.11
2018-08-28T00:28:11.621Z,89.31
2018-08-28T00:30:40.283Z,89.49
2018-08-28T00:33:09.991Z,88.04
2018-08-28T00:35:38.660Z,88.46
2018-08-28T00:38:07.339Z,88.89
2018-08-28T00:40:35.871Z,88.05
2018-08-28T00:43:04.379Z,88.29
2018-08-28T00:45:33.311Z,88.00
2018-08-28T00:48:01.740Z,88.25
2018-08-28T00:50:30.156Z,88.53
2018-08-28T00:52:58.789Z,89.66
2018-08-28T00:55:27.323Z,89.29
2018-08-28T00:57:55.799Z,91.19
2018-08-28T01:00:24.287Z,90.93
2018-08-28T01:02:52.823Z,90.18
2018-08-28T01:05:22.956Z,89.33
2018-08-28T01:07:52.038Z,87.96
2018-08-28T01:10:20.535Z,88.32
2018-08-28T01:12:49.032Z,87.77
2018-08-28T01:15:17.537Z,87.58
2018-08-28T01:17:46.015Z,88.31
2018-08-28T01:20:14.524Z,88.87
2018-08-28T01:22:43.304Z,88.24
2018-08-28T01:25:11.826Z,88.08
2018-08-28T01:27:40.387Z,87.77
2018-08-28T01:30:09.159Z,88.25
2018-08-28T01:32:37.674Z,88.28
2018-08-28T01:35:06.200Z,88.59
2018-08-28T01:37:34.948Z,89.43
2018-08-28T01:40:03.397Z,88.33
2018-08-28T01:42:31.883Z,89.56
2018-08-28T01:45:00.348Z,89.08
2018-08-28T01:47:28.977Z,88.56
2018-08-28T01:49:57.406Z,88.90
2018-08-28T01:52:26.116Z,89.03
2018-08-28T01:54:54.546Z,88.50
2018-08-28T01:57:23.072Z,89.71
2018-08-28T01:59:51.800Z,89.73
2018-08-28T02:02:20.311Z,89.04
2018-08-28T02:04:48.867Z,89.32
2018-08-28T02:07:17.591Z,88.16
2018-08-28T02:09:46.120Z,88.54
2018-08-28T02:12:14.621Z,88.53
2018-08-28T02:14:43.383Z,87.94
2018-08-28T02:17:11.920Z,88.94
2018-08-28T02:19:40.396Z,89.33
2018-08-28T02:22:08.967Z,88.99
2018-08-28T02:24:37.481Z,88.53
2018-08-28T02:27:06.479Z,88.62
2018-08-28T02:29:35.004Z,87.80
2018-08-28T02:32:03.483Z,87.10
2018-08-28T02:34:32.019Z,88.84
2018-08-28T02:37:00.493Z,87.80
2018-08-28T02:39:28.959Z,88.70
2018-08-28T02:41:57.371Z,88.08
2018-08-28T02:44:25.879Z,88.17
2018-08-28T02:46:54.367Z,87.97
2018-08-28T02:49:22.950Z,88.26
2018-08-28T02:51:51.602Z,87.46
2018-08-28T02:54:20.019Z,87.70
2018-08-28T02:56:48.515Z,88.13
2018-08-28T02:59:17.077Z,89.51
2018-08-28T03:01:45.555Z,88.84
2018-08-28T03:04:13.980Z,88.67
2018-08-28T03:06:42.463Z,89.31
2018-08-28T03:09:10.892Z,88.44
2018-08-28T03:11:39.318Z,88.69
2018-08-28T03:14:08.002Z,89.31
2018-08-28T03:16:36.622Z,89.14
2018-08-28T03:19:05.051Z,89.30
2018-08-28T03:21:33.692Z,89.62
2018-08-28T03:24:02.159Z,89.00
2018-08-28T03:26:30.729Z,89.24
2018-08-28T03:28:59.562Z,89.07
2018-08-28T03:31:27.927Z,89.15
2018-08-28T03:33:56.448Z,88.72
2018-08-28T03:36:25.105Z,88.97
2018-08-28T03:38:53.625Z,89.55
2018-08-28T03:41:22.083Z,88.64
2018-08-28T03:43:50.580Z,89.92
2018-08-28T03:46:18.971Z,90.09
2018-08-28T03:48:47.495Z,90.60
2018-08-28T03:51:16.185Z,90.37
2018-08-28T03:53:44.623Z,90.09
2018-08-28T03:56:13.097Z,89.31
2018-08-28T03:58:41.624Z,89.92
2018-08-28T04:01:10.263Z,89.50
2018-08-28T04:03:38.779Z,88.71
2018-08-28T04:06:07.747Z,89.37
2018-08-28T04:08:36.197Z,89.83
2018-08-28T04:11:04.687Z,89.76
2018-08-28T04:13:33.335Z,89.88
2018-08-28T04:16:01.811Z,89.41
2018-08-28T04:18:30.335Z,89.60
2018-08-28T04:20:58.923Z,89.29
2018-08-28T04:23:27.643Z,89.51
2018-08-28T04:25:56.103Z,89.70
2018-08-28T04:28:24.839Z,88.55
2018-08-28T04:30:53.382Z,88.73
2018-08-28T04:33:21.819Z,88.61
2018-08-28T04:35:50.268Z,88.07
2018-08-28T04:38:18.743Z,88.18
2018-08-28T04:40:47.235Z,89.43
2018-08-28T04:43:15.683Z,89.95
2018-08-28T04:45:44.127Z,90.85
2018-08-28T04:48:12.651Z,91.21
2018-08-28T04:50:41.360Z,91.07
2018-08-28T04:53:09.879Z,90.58
2018-08-28T04:55:38.379Z,90.40
2018-08-28T04:58:06.923Z,89.96
2018-08-28T05:00:35.437Z,89.37
2018-08-28T05:03:03.888Z,89.40
2018-08-28T05:05:32.519Z,89.25
2018-08-28T05:08:00.959Z,88.99
2018-08-28T05:10:29.443Z,89.31
2018-08-28T05:12:58.163Z,89.31
2018-08-28T05:15:26.639Z,88.52
2018-08-28T05:17:55.171Z,88.38
2018-08-28T05:20:23.899Z,89.54
2018-08-28T05:22:52.539Z,89.11
2018-08-28T05:25:21.163Z,88.01
2018-08-28T05:27:49.839Z,85.70
2018-08-28T05:30:18.404Z,84.48
2018-08-28T05:32:46.962Z,84.58
2018-08-28T05:35:15.584Z,84.77
2018-08-28T05:37:44.051Z,84.46
2018-08-28T05:40:12.516Z,83.85
2018-08-28T05:42:41.279Z,82.24
2018-08-28T05:45:09.800Z,82.87
2018-08-28T05:47:38.279Z,83.34
2018-08-28T05:50:07.109Z,83.00
2018-08-28T05:52:35.588Z,82.91
2018-08-28T05:55:04.211Z,81.80
2018-08-28T05:57:32.696Z,80.33
2018-08-28T06:00:01.132Z,81.12
2018-08-28T06:02:29.558Z,81.67
2018-08-28T06:04:58.092Z,81.53
2018-08-28T06:07:26.564Z,83.32
2018-08-28T06:09:54.995Z,82.70
2018-08-28T06:12:24.027Z,83.74
2018-08-28T06:14:52.497Z,83.04
2018-08-28T06:17:20.948Z,84.34
2018-08-28T06:19:49.399Z,83.99
2018-08-28T06:22:17.818Z,84.54
2018-08-28T06:24:46.367Z,84.70
2018-08-28T06:27:14.963Z,84.31
2018-08-28T06:29:43.400Z,83.44
2018-08-28T06:32:11.887Z,82.34
2018-08-28T06:34:40.619Z,83.49
2018-08-28T06:37:09.073Z,84.36
2018-08-28T06:39:37.532Z,84.52
2018-08-28T06:42:06.251Z,84.12
2018-08-28T06:44:34.801Z,84.05
2018-08-28T06:47:03.299Z,84.45
2018-08-28T06:49:31.947Z,84.76
2018-08-28T06:52:00.524Z,84.33
2018-08-28T06:54:28.959Z,84.00
2018-08-28T06:56:57.695Z,83.70
2018-08-28T06:59:26.148Z,83.03
2018-08-28T07:01:54.659Z,82.33
2018-08-28T07:04:23.421Z,82.61
2018-08-28T07:06:51.924Z,83.65
2018-08-28T07:09:20.427Z,81.59
2018-08-28T07:11:48.947Z,82.66
2018-08-28T07:14:17.401Z,82.51
2018-08-28T07:16:45.935Z,82.56
2018-08-28T07:19:14.447Z,82.27
2018-08-28T07:21:43.023Z,81.53
2018-08-28T07:24:11.508Z,82.09
2018-08-28T07:26:40.043Z,81.93
2018-08-28T07:29:08.567Z,82.17
2018-08-28T07:31:37.089Z,80.09
2018-08-28T07:34:06.052Z,80.42
2018-08-28T07:36:34.520Z,79.40
2018-08-28T07:39:03.238Z,78.94
2018-08-28T07:41:31.935Z,78.74
2018-08-28T07:44:00.459Z,78.69
2018-08-28T07:46:28.950Z,77.92
2018-08-28T07:48:57.503Z,77.29
2018-08-28T07:51:25.995Z,76.94
2018-08-28T07:53:54.497Z,75.91
2018-08-28T07:56:23.002Z,75.54
2018-08-28T07:58:51.466Z,74.92
2018-08-28T08:01:19.903Z,74.54
2018-08-28T08:03:48.596Z,74.01
2018-08-28T08:06:17.035Z,73.72
2018-08-28T08:08:45.451Z,73.24
2018-08-28T08:11:13.983Z,72.74
2018-08-28T08:13:42.420Z,72.97
2018-08-28T08:16:10.996Z,71.99
2018-08-28T08:18:39.606Z,71.78
2018-08-28T08:21:08.171Z,72.16
2018-08-28T08:23:36.697Z,71.34
2018-08-28T08:26:05.177Z,68.51
2018-08-28T08:28:33.663Z,69.28
2018-08-28T08:31:02.147Z,69.40
2018-08-28T08:33:30.772Z,68.10
2018-08-28T08:35:59.351Z,68.32
2018-08-28T08:38:27.860Z,67.50
2018-08-28T08:40:56.363Z,67.93
2018-08-28T08:43:24.826Z,66.38
2018-08-28T08:45:53.332Z,65.12
2018-08-28T08:48:22.103Z,64.93
2018-08-28T08:50:50.675Z,65.07
2018-08-28T08:53:19.115Z,63.85
2018-08-28T08:55:47.635Z,63.04
2018-08-28T08:58:16.071Z,63.06
2018-08-28T09:00:44.604Z,59.11
2018-08-28T09:03:13.270Z,58.69
2018-08-28T09:05:41.803Z,57.57
2018-08-28T09:08:10.343Z,57.94
2018-08-28T09:10:38.960Z,55.71
2018-08-28T09:13:07.376Z,58.06
2018-08-28T09:15:35.900Z,57.21
2018-08-28T09:18:04.559Z,55.91
2018-08-28T09:20:33.058Z,56.02
2018-08-28T09:23:01.496Z,55.12
2018-08-28T09:25:30.315Z,55.84
2018-08-28T09:27:58.851Z,55.29
2018-08-28T09:30:27.360Z,55.74
2018-08-28T09:32:55.881Z,57.04
2018-08-28T09:35:24.311Z,56.39
2018-08-28T09:37:52.816Z,55.45
2018-08-28T09:40:21.541Z,55.11
2018-08-28T09:42:50.035Z,56.00
2018-08-28T09:45:18.491Z,55.67
2018-08-28T09:47:47.181Z,55.63
2018-08-28T09:50:15.778Z,55.14
2018-08-28T09:52:44.299Z,54.40
2018-08-28T09:55:13.132Z,53.74
2018-08-28T09:57:41.602Z,53.00
2018-08-28T10:00:14.768Z,52.58
2018-08-28T10:02:43.619Z,50.99
2018-08-28T10:05:12.083Z,49.94
2018-08-28T10:07:40.620Z,50.63
2018-08-28T10:10:09.112Z,50.02
2018-08-28T10:12:37.579Z,49.53
2018-08-28T10:15:06.716Z,48.43
2018-08-28T10:17:35.204Z,49.76
2018-08-28T10:20:03.872Z,50.20
2018-08-28T10:22:32.360Z,50.00
2018-08-28T10:25:00.896Z,50.52
2018-08-28T10:27:29.473Z,50.39
2018-08-28T10:29:58.193Z,50.12
2018-08-28T10:32:26.713Z,49.64
2018-08-28T10:34:55.484Z,48.03
2018-08-28T10:37:23.967Z,48.71
2018-08-28T10:39:52.579Z,49.02
2018-08-28T10:42:21.057Z,48.86
2018-08-28T10:44:49.503Z,48.58
2018-08-28T10:47:18.012Z,48.26
2018-08-28T10:49:46.499Z,48.42
2018-08-28T10:52:15.065Z,49.55
2018-08-28T10:54:43.519Z,49.78
2018-08-28T10:57:12.027Z,49.88
2018-08-28T10:59:40.767Z,49.35
2018-08-28T11:02:09.188Z,48.54
2018-08-28T11:04:37.815Z,49.01
2018-08-28T11:07:06.460Z,48.30
2018-08-28T11:09:34.912Z,48.19
2018-08-28T11:12:03.351Z,47.06
2018-08-28T11:14:32.039Z,47.84
2018-08-28T11:17:00.599Z,47.10
2018-08-28T11:19:29.075Z,47.13
2018-08-28T11:21:57.822Z,47.80
2018-08-28T11:24:26.357Z,47.46
2018-08-28T11:26:54.775Z,46.94
2018-08-28T11:29:23.407Z,47.43
2018-08-28T11:31:51.860Z,46.58
2018-08-28T11:34:20.669Z,46.18
2018-08-28T11:36:49.328Z,46.58
2018-08-28T11:39:17.825Z,46.96
2018-08-28T11:41:46.332Z,47.19
2018-08-28T11:44:14.983Z,46.00
2018-08-28T11:46:43.544Z,45.89
2018-08-28T11:49:12.159Z,46.12
2018-08-28T11:51:40.650Z,46.15
2018-08-28T11:54:09.075Z,45.35
2018-08-28T11:56:37.732Z,45.84
2018-08-28T11:59:06.262Z,47.60
2018-08-28T12:01:34.716Z,46.17
2018-08-28T12:04:03.196Z,46.50
2018-08-28T12:06:31.846Z,46.43
2018-08-28T12:09:00.221Z,45.35
2018-08-28T12:11:28.771Z,45.32
2018-08-28T12:13:57.287Z,44.00
2018-08-28T12:16:25.845Z,43.87
2018-08-28T12:18:54.279Z,44.85
2018-08-28T12:21:22.780Z,44.20
2018-08-28T12:23:51.175Z,44.95
2018-08-28T12:26:19.617Z,44.96
2018-08-28T12:28:48.283Z,44.32
2018-08-28T12:31:16.832Z,44.14
2018-08-28T12:33:45.292Z,43.95
2018-08-28T12:36:13.975Z,42.68
2018-08-28T12:38:42.498Z,41.65
2018-08-28T12:41:11.351Z,41.72
2018-08-28T12:43:40.021Z,42.31
2018-08-28T12:46:08.533Z,42.99
2018-08-28T12:48:36.995Z,42.67
2018-08-28T12:51:06.320Z,44.66
2018-08-28T12:53:34.800Z,43.08
2018-08-28T12:56:03.280Z,43.56
2018-08-28T12:58:31.995Z,44.13
2018-08-28T13:01:00.418Z,43.68
2018-08-28T13:03:28.884Z,42.97
2018-08-28T13:05:57.396Z,42.10
2018-08-28T13:08:25.847Z,43.27
2018-08-28T13:10:54.511Z,43.59
2018-08-28T13:13:23.223Z,43.03
2018-08-28T13:15:51.974Z,42.55
2018-08-28T13:18:20.818Z,41.91
2018-08-28T13:20:49.308Z,41.93
2018-08-28T13:23:17.763Z,41.49
2018-08-28T13:25:46.292Z,41.79
2018-08-28T13:28:14.992Z,40.33
2018-08-28T13:30:43.568Z,41.52
2018-08-28T13:33:12.038Z,40.58
2018-08-28T13:35:40.731Z,41.51
2018-08-28T13:38:09.227Z,42.66
2018-08-28T13:40:37.869Z,41.80
2018-08-28T13:43:07.046Z,41.33
2018-08-28T13:45:35.650Z,41.12
2018-08-28T13:48:04.111Z,42.00
2018-08-28T13:50:32.679Z,42.57
2018-08-28T13:53:01.117Z,42.17
2018-08-28T13:55:29.592Z,42.14
2018-08-28T13:57:58.019Z,41.62
2018-08-28T14:00:26.639Z,41.89
2018-08-28T14:02:55.068Z,41.85
2018-08-28T14:05:23.747Z,42.02
2018-08-28T14:07:52.213Z,41.45
2018-08-28T14:10:20.666Z,41.50
2018-08-28T14:12:49.211Z,41.33
2018-08-28T14:15:17.671Z,41.22
2018-08-28T14:17:46.151Z,40.80
2018-08-28T14:20:14.657Z,41.61
2018-08-28T14:22:43.323Z,41.46
2018-08-28T14:25:11.771Z,42.56
2018-08-28T14:27:40.347Z,42.02
2018-08-28T14:30:14.095Z,41.70
2018-08-28T14:32:42.552Z,41.21
2018-08-28T14:35:10.975Z,41.08
2018-08-28T14:37:39.444Z,40.81
2018-08-28T14:40:08.099Z,40.82
2018-08-28T14:42:36.730Z,41.05
2018-08-28T14:45:05.631Z,39.90
2018-08-28T14:47:34.288Z,41.13
2018-08-28T14:50:02.886Z,40.93
2018-08-28T14:52:31.222Z,40.84
2018-08-28T14:54:59.752Z,41.54
2018-08-28T14:57:28.248Z,40.70
2018-08-28T14:59:56.813Z,41.15
2018-08-28T15:02:25.271Z,40.88
2018-08-28T15:04:53.743Z,41.29
2018-08-28T15:07:22.184Z,40.96
2018-08-28T15:09:50.969Z,41.09
2018-08-28T15:12:19.407Z,41.08
2018-08-28T15:14:47.954Z,41.09
2018-08-28T15:17:16.570Z,40.71
2018-08-28T15:19:45.048Z,41.47
2018-08-28T15:22:13.471Z,40.62
2018-08-28T15:24:42.160Z,40.50
2018-08-28T15:27:10.697Z,40.67
2018-08-28T15:29:39.143Z,40.04
2018-08-28T15:32:07.801Z,39.89
2018-08-28T15:34:36.468Z,39.72
2018-08-28T15:37:05.055Z,41.04
2018-08-28T15:39:33.675Z,40.78
2018-08-28T15:42:02.203Z,40.59
2018-08-28T15:44:30.722Z,41.23
2018-08-28T15:46:59.418Z,41.52
2018-08-28T15:49:27.916Z,41.43
2018-08-28T15:51:56.437Z,40.82
2018-08-28T15:54:24.964Z,40.92
2018-08-28T15:56:53.435Z,41.57
2018-08-28T15:59:21.967Z,41.24
2018-08-28T16:01:50.407Z,40.83
2018-08-28T16:04:21.579Z,40.89
2018-08-28T16:06:51.787Z,40.50
2018-08-28T16:09:20.277Z,40.85
2018-08-28T16:11:48.979Z,41.55
2018-08-28T16:14:17.451Z,41.17
2018-08-28T16:16:46.691Z,39.96
2018-08-28T16:19:15.384Z,40.25
2018-08-28T16:21:52.939Z,41.03
2018-08-28T16:24:21.955Z,40.72
2018-08-28T16:26:50.491Z,39.99
2018-08-28T16:29:19.021Z,40.97
2018-08-28T16:31:47.578Z,39.87
2018-08-28T16:34:16.040Z,41.07
2018-08-28T16:36:44.703Z,40.29
2018-08-28T16:39:13.167Z,40.41
2018-08-28T16:41:41.763Z,40.54
2018-08-28T16:44:10.420Z,41.13
2018-08-28T16:46:39.005Z,40.56
2018-08-28T16:49:07.407Z,40.95
2018-08-28T16:51:36.196Z,40.36
2018-08-28T16:54:04.819Z,39.88
2018-08-28T16:56:33.331Z,40.21
2018-08-28T16:59:01.967Z,40.73
2018-08-28T17:01:30.483Z,39.83
2018-08-28T17:03:58.883Z,39.34
2018-08-28T17:06:27.479Z,40.35
2018-08-28T17:08:55.972Z,40.72
2018-08-28T17:11:24.483Z,40.76
2018-08-28T17:13:53.251Z,41.72
2018-08-28T17:16:21.765Z,41.40
2018-08-28T17:18:50.243Z,41.66
2018-08-28T17:21:18.780Z,41.04
2018-08-28T17:23:47.268Z,42.51
2018-08-28T17:26:15.712Z,43.38
2018-08-28T17:28:44.409Z,44.16
2018-08-28T17:31:12.943Z,44.84
2018-08-28T17:33:41.376Z,44.29
2018-08-28T17:36:10.099Z,44.63
2018-08-28T17:38:38.636Z,46.18
2018-08-28T17:41:07.084Z,46.81
2018-08-28T17:43:35.679Z,47.57
2018-08-28T17:46:04.276Z,47.12
2018-08-28T17:48:33.753Z,47.33
2018-08-28T17:51:02.387Z,48.79
2018-08-28T17:53:30.930Z,49.12
2018-08-28T17:55:59.770Z,48.71
2018-08-28T17:58:28.590Z,49.50
2018-08-28T18:00:57.751Z,50.27
2018-08-28T18:03:26.286Z,49.88
2018-08-28T18:05:55.442Z,49.71
2018-08-28T18:08:24.266Z,49.94
2018-08-28T18:10:53.056Z,49.28
2018-08-28T18:13:21.790Z,50.13
2018-08-28T18:15:50.607Z,50.56
2018-08-28T18:18:19.830Z,51.90
2018-08-28T18:20:49.576Z,51.98
2018-08-28T18:23:19.063Z,52.70
2018-08-28T18:25:48.058Z,52.09
2018-08-28T18:28:17.333Z,51.85
2018-08-28T18:30:46.376Z,52.43
2018-08-28T18:33:15.415Z,52.33
2018-08-28T18:35:44.653Z,51.94
2018-08-28T18:38:13.619Z,52.03
2018-08-28T18:40:42.851Z,53.01
2018-08-28T18:43:11.958Z,53.56
2018-08-28T18:45:41.486Z,52.92
2018-08-28T18:48:10.547Z,53.29
2018-08-28T18:50:40.499Z,53.84
2018-08-28T18:53:09.635Z,53.59
2018-08-28T18:55:38.842Z,54.38
2018-08-28T18:58:08.317Z,55.03
2018-08-28T19:00:37.663Z,55.71
2018-08-28T19:03:06.778Z,55.35
2018-08-28T19:05:36.662Z,55.10
2018-08-28T19:08:05.784Z,55.35
2018-08-28T19:10:34.977Z,56.17
2018-08-28T19:13:04.293Z,55.91
2018-08-28T19:15:33.487Z,56.57
2018-08-28T19:18:02.661Z,58.13
2018-08-28T19:20:32.242Z,58.49
2018-08-28T19:23:01.966Z,57.60
2018-08-28T19:25:31.979Z,58.77
2018-08-28T19:28:01.874Z,57.83
2018-08-28T19:30:31.061Z,59.48
2018-08-28T19:33:00.131Z,58.63
2018-08-28T19:35:29.153Z,58.32
2018-08-28T19:37:58.244Z,59.03
2018-08-28T19:40:28.397Z,58.52
2018-08-28T19:42:57.525Z,59.53
2018-08-28T19:45:30.755Z,59.99
2018-08-28T19:47:59.702Z,59.60
2018-08-28T19:50:29.508Z,59.87
2018-08-28T19:52:58.717Z,59.53
2018-08-28T19:55:28.138Z,60.60
2018-08-28T19:57:57.840Z,61.09
2018-08-28T20:00:27.815Z,61.54
2018-08-28T20:02:56.807Z,61.31
2018-08-28T20:05:28.024Z,61.95
2018-08-28T20:07:57.614Z,62.12
2018-08-28T20:10:27.828Z,62.62
2018-08-28T20:12:57.228Z,63.66
2018-08-28T20:15:26.255Z,63.95
2018-08-28T20:17:56.082Z,64.04
2018-08-28T20:20:25.117Z,64.12
2018-08-28T20:22:54.222Z,64.44
2018-08-28T20:25:25.218Z,64.26
2018-08-28T20:27:54.351Z,64.40
2018-08-28T20:30:23.955Z,64.38
2018-08-28T20:32:53.294Z,66.47
2018-08-28T20:35:22.380Z,67.32
2018-08-28T20:37:51.359Z,67.57
2018-08-28T20:40:20.524Z,66.53
2018-08-28T20:42:49.507Z,67.13
2018-08-28T20:45:18.471Z,67.92
2018-08-28T20:47:47.528Z,67.73
2018-08-28T20:50:17.481Z,68.00
2018-08-28T20:52:46.357Z,66.82
2018-08-28T20:55:15.448Z,66.72
2018-08-28T20:57:44.252Z,66.98
2018-08-28T21:00:13.078Z,67.22
2018-08-28T21:02:42.109Z,66.80
2018-08-28T21:05:10.625Z,67.70
2018-08-28T21:07:39.248Z,66.29
2018-08-28T21:10:07.915Z,67.18
2018-08-28T21:12:36.542Z,67.51
2018-08-28T21:15:04.992Z,67.07
2018-08-28T21:17:33.459Z,67.30
2018-08-28T21:20:02.001Z,68.11
2018-08-28T21:22:30.456Z,67.94
2018-08-28T21:24:59.103Z,68.05
2018-08-28T21:27:27.523Z,69.01
2018-08-28T21:29:56.061Z,69.08
2018-08-28T21:32:24.817Z,70.12
2018-08-28T21:34:53.359Z,69.97
2018-08-28T21:37:21.883Z,71.05
2018-08-28T21:39:50.351Z,70.19
2018-08-28T21:42:18.876Z,71.11
2018-08-28T21:44:47.325Z,71.05
2018-08-28T21:47:15.831Z,71.81
2018-08-28T21:49:44.316Z,71.65
2018-08-28T21:52:12.907Z,71.45
2018-08-28T21:54:41.439Z,71.90
2018-08-28T21:57:09.880Z,72.57
2018-08-28T21:59:38.381Z,73.08
2018-08-28T22:02:06.961Z,73.65
2018-08-28T22:04:35.616Z,72.94
2018-08-28T22:07:09.420Z,73.20
2018-08-28T22:09:37.912Z,73.26
2018-08-28T22:12:06.414Z,73.63
2018-08-28T22:14:35.115Z,73.46
2018-08-28T22:17:03.807Z,73.57
2018-08-28T22:19:32.375Z,73.93
2018-08-28T22:22:01.147Z,73.50
2018-08-28T22:24:30.123Z,73.05
2018-08-28T22:26:58.763Z,73.81
2018-08-28T22:29:27.287Z,73.92
2018-08-28T22:31:55.774Z,74.82
2018-08-28T22:34:24.395Z,74.62
2018-08-28T22:36:53.127Z,74.20
2018-08-28T22:39:21.659Z,75.03
2018-08-28T22:41:50.493Z,73.95
2018-08-28T22:44:19.119Z,74.96
2018-08-28T22:46:47.556Z,75.56
2018-08-28T22:49:16.021Z,75.41
2018-08-28T22:51:44.577Z,75.49
2018-08-28T22:54:13.271Z,75.67
2018-08-28T22:56:41.575Z,74.84
2018-08-28T22:59:10.033Z,74.29
2018-08-28T23:01:38.547Z,75.86
2018-08-28T23:04:07.064Z,74.87
2018-08-28T23:06:35.792Z,76.42
2018-08-28T23:09:05.032Z,76.69
2018-08-28T23:11:33.455Z,77.56
2018-08-28T23:14:02.075Z,78.01
2018-08-28T23:16:30.623Z,78.26
2018-08-28T23:18:59.364Z,77.56
2018-08-28T23:21:27.969Z,76.87
2018-08-28T23:23:56.487Z,77.28
2018-08-28T23:26:24.975Z,77.88
2018-08-28T23:28:53.658Z,77.86
2018-08-28T23:31:22.196Z,78.45
2018-08-28T23:33:50.702Z,77.73
2018-08-28T23:36:19.156Z,79.74
2018-08-28T23:38:47.599Z,78.73
2018-08-28T23:41:16.084Z,78.38
2018-08-28T23:43:44.816Z,78.95
2018-08-28T23:46:13.244Z,78.97
2018-08-28T23:48:41.691Z,78.47
2018-08-28T23:51:10.557Z,79.11
2018-08-28T23:53:39.215Z,79.77
2018-08-28T23:56:07.981Z,78.10
2018-08-28T23:58:36.539Z,78.46
